sensor_id;sensor_type;location;lat;lon;timestamp;pressure;altitude;pressure_sealevel;temperature;humidity
42289;BME280;30230;47.520;19.016;2022-09-03T00:01:46;99120.28;;;13.70;83.20
42289;BME280;30230;47.520;19.016;2022-09-03T00:04:00;99117.56;;;13.70;83.11
42289;BME280;30230;47.520;19.016;2022-09-03T00:06:22;99122.22;;;13.63;84.33
42289;BME280;30230;47.520;19.016;2022-09-03T00:08:37;99128.94;;;13.61;84.53
42289;BME280;30230;47.520;19.016;2022-09-03T00:13:00;99125.16;;;13.62;84.54
42289;BME280;30230;47.520;19.016;2022-09-03T00:15:06;99132.72;;;13.60;84.38
42289;BME280;30230;47.520;19.016;2022-09-03T00:17:16;99125.06;;;13.68;84.14
42289;BME280;30230;47.520;19.016;2022-09-03T00:19:25;99121.63;;;13.61;84.06
42289;BME280;30230;47.520;19.016;2022-09-03T00:21:38;99129.53;;;13.63;85.10
42289;BME280;30230;47.520;19.016;2022-09-03T00:23:41;99122.00;;;13.65;83.92
42289;BME280;30230;47.520;19.016;2022-09-03T00:26:07;99122.50;;;13.73;83.90
42289;BME280;30230;47.520;19.016;2022-09-03T00:28:27;99128.41;;;13.70;82.96
42289;BME280;30230;47.520;19.016;2022-09-03T00:30:30;99128.25;;;13.65;84.74
42289;BME280;30230;47.520;19.016;2022-09-03T00:32:52;99121.16;;;13.64;85.59
42289;BME280;30230;47.520;19.016;2022-09-03T00:35:00;99122.06;;;13.58;84.66
42289;BME280;30230;47.520;19.016;2022-09-03T00:37:02;99123.72;;;13.59;85.21
42289;BME280;30230;47.520;19.016;2022-09-03T00:39:02;99123.72;;;13.59;84.70
42289;BME280;30230;47.520;19.016;2022-09-03T00:43:43;99126.28;;;13.54;85.66
42289;BME280;30230;47.520;19.016;2022-09-03T00:46:51;99125.00;;;13.57;85.27
42289;BME280;30230;47.520;19.016;2022-09-03T00:55:29;99126.59;;;13.64;84.64
42289;BME280;30230;47.520;19.016;2022-09-03T00:59:48;99127.56;;;13.51;84.97
42289;BME280;30230;47.520;19.016;2022-09-03T01:02:13;99126.59;;;13.46;85.34
42289;BME280;30230;47.520;19.016;2022-09-03T01:16:35;99134.34;;;13.24;86.53
42289;BME280;30230;47.520;19.016;2022-09-03T01:29:02;99148.44;;;13.08;88.63
42289;BME280;30230;47.520;19.016;2022-09-03T01:33:42;99142.28;;;13.19;87.59
42289;BME280;30230;47.520;19.016;2022-09-03T01:42:36;99140.81;;;13.23;88.57
42289;BME280;30230;47.520;19.016;2022-09-03T01:47:42;99149.16;;;13.21;87.50
42289;BME280;30230;47.520;19.016;2022-09-03T01:57:53;99141.97;;;13.09;88.79
42289;BME280;30230;47.520;19.016;2022-09-03T02:02:14;99145.50;;;13.09;88.50
42289;BME280;30230;47.520;19.016;2022-09-03T02:04:22;99150.47;;;13.12;88.16
42289;BME280;30230;47.520;19.016;2022-09-03T02:06:27;99147.59;;;13.07;88.60
42289;BME280;30230;47.520;19.016;2022-09-03T02:08:31;99156.78;;;13.06;88.65
42289;BME280;30230;47.520;19.016;2022-09-03T02:12:40;99146.91;;;12.93;90.07
42289;BME280;30230;47.520;19.016;2022-09-03T02:14:43;99152.50;;;12.98;89.80
42289;BME280;30230;47.520;19.016;2022-09-03T02:16:43;99149.28;;;13.08;88.96
42289;BME280;30230;47.520;19.016;2022-09-03T02:18:54;99155.06;;;13.12;88.88
42289;BME280;30230;47.520;19.016;2022-09-03T02:20:56;99148.81;;;13.11;89.43
42289;BME280;30230;47.520;19.016;2022-09-03T02:22:58;99154.78;;;13.20;88.71
42289;BME280;30230;47.520;19.016;2022-09-03T02:24:59;99150.63;;;13.17;88.20
42289;BME280;30230;47.520;19.016;2022-09-03T02:26:59;99161.94;;;13.14;89.00
42289;BME280;30230;47.520;19.016;2022-09-03T02:29:01;99155.91;;;13.12;89.39
42289;BME280;30230;47.520;19.016;2022-09-03T02:31:02;99159.06;;;13.09;89.40
42289;BME280;30230;47.520;19.016;2022-09-03T02:33:03;99154.72;;;13.08;89.64
42289;BME280;30230;47.520;19.016;2022-09-03T02:35:04;99149.94;;;13.03;90.20
42289;BME280;30230;47.520;19.016;2022-09-03T02:37:12;99157.69;;;13.00;89.99
42289;BME280;30230;47.520;19.016;2022-09-03T02:39:14;99151.28;;;12.94;90.76
42289;BME280;30230;47.520;19.016;2022-09-03T02:41:15;99162.28;;;12.99;90.78
42289;BME280;30230;47.520;19.016;2022-09-03T02:44:02;99152.03;;;13.01;89.89
42289;BME280;30230;47.520;19.016;2022-09-03T02:45:47;99152.97;;;13.14;88.84
42289;BME280;30230;47.520;19.016;2022-09-03T02:47:54;99150.19;;;13.20;88.71
42289;BME280;30230;47.520;19.016;2022-09-03T02:49:54;99141.66;;;13.17;89.07
42289;BME280;30230;47.520;19.016;2022-09-03T02:52:00;99153.09;;;13.25;88.60
42289;BME280;30230;47.520;19.016;2022-09-03T02:54:01;99150.44;;;13.19;88.62
42289;BME280;30230;47.520;19.016;2022-09-03T02:56:02;99153.66;;;13.09;89.10
42289;BME280;30230;47.520;19.016;2022-09-03T02:58:03;99156.19;;;13.04;90.14
42289;BME280;30230;47.520;19.016;2022-09-03T03:00:07;99157.44;;;13.01;90.53
42289;BME280;30230;47.520;19.016;2022-09-03T03:02:07;99162.34;;;12.93;90.21
42289;BME280;30230;47.520;19.016;2022-09-03T03:04:08;99163.59;;;12.90;90.02
42289;BME280;30230;47.520;19.016;2022-09-03T03:06:09;99158.84;;;12.86;90.64
42289;BME280;30230;47.520;19.016;2022-09-03T03:08:10;99160.50;;;12.87;90.81
42289;BME280;30230;47.520;19.016;2022-09-03T03:10:14;99155.69;;;12.89;90.44
42289;BME280;30230;47.520;19.016;2022-09-03T03:12:14;99151.53;;;12.86;90.84
42289;BME280;30230;47.520;19.016;2022-09-03T03:14:17;99149.88;;;12.85;91.47
42289;BME280;30230;47.520;19.016;2022-09-03T03:16:18;99161.56;;;12.86;91.03
42289;BME280;30230;47.520;19.016;2022-09-03T03:18:18;99157.41;;;12.83;91.58
42289;BME280;30230;47.520;19.016;2022-09-03T03:20:19;99150.34;;;12.82;91.68
42289;BME280;30230;47.520;19.016;2022-09-03T03:22:20;99156.19;;;12.79;92.26
42289;BME280;30230;47.520;19.016;2022-09-03T03:24:20;99153.09;;;12.75;91.85
42289;BME280;30230;47.520;19.016;2022-09-03T03:26:21;99159.56;;;12.74;92.47
42289;BME280;30230;47.520;19.016;2022-09-03T03:28:23;99161.28;;;12.69;92.11
42289;BME280;30230;47.520;19.016;2022-09-03T03:30:23;99170.47;;;12.68;92.13
42289;BME280;30230;47.520;19.016;2022-09-03T03:32:24;99170.88;;;12.65;92.45
42289;BME280;30230;47.520;19.016;2022-09-03T03:34:24;99172.78;;;12.64;92.01
42289;BME280;30230;47.520;19.016;2022-09-03T03:36:28;99167.56;;;12.63;91.94
42289;BME280;30230;47.520;19.016;2022-09-03T03:38:28;99171.75;;;12.59;92.33
42289;BME280;30230;47.520;19.016;2022-09-03T03:40:29;99169.06;;;12.59;92.16
42289;BME280;30230;47.520;19.016;2022-09-03T03:42:34;99175.13;;;12.54;91.99
42289;BME280;30230;47.520;19.016;2022-09-03T03:44:34;99180.13;;;12.57;92.72
42289;BME280;30230;47.520;19.016;2022-09-03T03:46:37;99182.38;;;12.60;92.49
42289;BME280;30230;47.520;19.016;2022-09-03T03:48:38;99175.97;;;12.55;92.61
42289;BME280;30230;47.520;19.016;2022-09-03T03:50:38;99178.06;;;12.52;92.67
42289;BME280;30230;47.520;19.016;2022-09-03T03:52:39;99184.13;;;12.48;93.14
42289;BME280;30230;47.520;19.016;2022-09-03T03:54:39;99181.84;;;12.51;93.53
42289;BME280;30230;47.520;19.016;2022-09-03T03:56:39;99179.06;;;12.58;93.51
42289;BME280;30230;47.520;19.016;2022-09-03T03:58:41;99176.31;;;12.65;92.63
42289;BME280;30230;47.520;19.016;2022-09-03T04:00:41;99180.66;;;12.66;91.87
42289;BME280;30230;47.520;19.016;2022-09-03T04:02:42;99180.66;;;12.66;91.50
42289;BME280;30230;47.520;19.016;2022-09-03T04:04:42;99180.91;;;12.64;91.60
42289;BME280;30230;47.520;19.016;2022-09-03T04:06:42;99190.31;;;12.62;91.63
42289;BME280;30230;47.520;19.016;2022-09-03T04:08:45;99192.00;;;12.56;92.36
42289;BME280;30230;47.520;19.016;2022-09-03T04:10:45;99191.16;;;12.56;92.83
42289;BME280;30230;47.520;19.016;2022-09-03T04:12:46;99190.56;;;12.54;92.69
42289;BME280;30230;47.520;19.016;2022-09-03T04:14:46;99193.91;;;12.49;93.54
42289;BME280;30230;47.520;19.016;2022-09-03T04:16:47;99195.63;;;12.43;93.73
42289;BME280;30230;47.520;19.016;2022-09-03T04:18:47;99200.22;;;12.43;93.63
42289;BME280;30230;47.520;19.016;2022-09-03T04:20:48;99200.22;;;12.43;94.24
42289;BME280;30230;47.520;19.016;2022-09-03T04:22:49;99204.69;;;12.56;93.61
42289;BME280;30230;47.520;19.016;2022-09-03T04:24:49;99202.41;;;12.59;93.12
42289;BME280;30230;47.520;19.016;2022-09-03T04:26:50;99196.75;;;12.61;92.57
42289;BME280;30230;47.520;19.016;2022-09-03T04:28:50;99200.50;;;12.66;92.69
42289;BME280;30230;47.520;19.016;2022-09-03T04:30:51;99199.88;;;12.64;92.41
42289;BME280;30230;47.520;19.016;2022-09-03T04:32:51;99197.94;;;12.71;92.69
42289;BME280;30230;47.520;19.016;2022-09-03T04:34:52;99194.78;;;12.74;91.64
42289;BME280;30230;47.520;19.016;2022-09-03T04:36:53;99202.53;;;12.71;91.89
42289;BME280;30230;47.520;19.016;2022-09-03T04:38:54;99206.69;;;12.73;92.60
42289;BME280;30230;47.520;19.016;2022-09-03T04:40:55;99207.13;;;12.70;92.11
42289;BME280;30230;47.520;19.016;2022-09-03T04:42:56;99218.78;;;12.71;93.19
42289;BME280;30230;47.520;19.016;2022-09-03T04:44:58;99212.53;;;12.70;93.27
42289;BME280;30230;47.520;19.016;2022-09-03T04:46:58;99218.75;;;12.77;94.54
42289;BME280;30230;47.520;19.016;2022-09-03T04:48:59;99213.13;;;12.79;94.24
42289;BME280;30230;47.520;19.016;2022-09-03T04:51:09;99212.88;;;12.81;94.06
42289;BME280;30230;47.520;19.016;2022-09-03T04:53:10;99206.81;;;12.85;93.53
42289;BME280;30230;47.520;19.016;2022-09-03T04:55:10;99205.06;;;12.97;93.97
42289;BME280;30230;47.520;19.016;2022-09-03T04:57:11;99211.91;;;13.00;93.32
42289;BME280;30230;47.520;19.016;2022-09-03T04:59:11;99213.13;;;13.04;92.24
42289;BME280;30230;47.520;19.016;2022-09-03T05:01:20;99216.03;;;13.09;93.28
42289;BME280;30230;47.520;19.016;2022-09-03T05:03:21;99210.97;;;13.13;92.81
42289;BME280;30230;47.520;19.016;2022-09-03T05:05:21;99211.81;;;13.13;92.85
42289;BME280;30230;47.520;19.016;2022-09-03T05:07:22;99215.72;;;13.17;92.81
42289;BME280;30230;47.520;19.016;2022-09-03T05:09:23;99205.06;;;13.22;92.22
42289;BME280;30230;47.520;19.016;2022-09-03T05:11:24;99210.47;;;13.29;92.23
42289;BME280;30230;47.520;19.016;2022-09-03T05:13:26;99214.38;;;13.33;92.37
42289;BME280;30230;47.520;19.016;2022-09-03T05:15:29;99208.72;;;13.35;92.51
42289;BME280;30230;47.520;19.016;2022-09-03T05:17:29;99209.97;;;13.39;92.06
42289;BME280;30230;47.520;19.016;2022-09-03T05:19:30;99219.44;;;13.48;91.11
42289;BME280;30230;47.520;19.016;2022-09-03T05:21:31;99221.50;;;13.52;89.51
42289;BME280;30230;47.520;19.016;2022-09-03T05:23:35;99215.16;;;13.59;88.87
42289;BME280;30230;47.520;19.016;2022-09-03T05:25:36;99223.25;;;13.65;88.99
42289;BME280;30230;47.520;19.016;2022-09-03T05:27:37;99218.44;;;13.67;89.23
42289;BME280;30230;47.520;19.016;2022-09-03T05:29:37;99210.88;;;13.69;88.50
42289;BME280;30230;47.520;19.016;2022-09-03T05:31:38;99220.63;;;13.77;88.62
42289;BME280;30230;47.520;19.016;2022-09-03T05:33:47;99207.44;;;13.80;88.54
42289;BME280;30230;47.520;19.016;2022-09-03T05:35:48;99216.75;;;13.85;88.56
42289;BME280;30230;47.520;19.016;2022-09-03T05:37:49;99213.53;;;13.94;88.13
42289;BME280;30230;47.520;19.016;2022-09-03T05:39:49;99218.50;;;13.97;88.69
42289;BME280;30230;47.520;19.016;2022-09-03T05:41:50;99210.13;;;13.99;89.08
42289;BME280;30230;47.520;19.016;2022-09-03T05:43:52;99211.34;;;14.03;89.01
42289;BME280;30230;47.520;19.016;2022-09-03T05:46:18;99212.69;;;14.12;88.72
42289;BME280;30230;47.520;19.016;2022-09-03T05:48:18;99211.19;;;14.16;88.76
42289;BME280;30230;47.520;19.016;2022-09-03T05:50:18;99217.13;;;14.25;88.79
42289;BME280;30230;47.520;19.016;2022-09-03T05:52:19;99216.00;;;14.32;89.26
42289;BME280;30230;47.520;19.016;2022-09-03T05:54:20;99223.47;;;14.37;89.70
42289;BME280;30230;47.520;19.016;2022-09-03T05:56:23;99222.06;;;14.46;90.08
42289;BME280;30230;47.520;19.016;2022-09-03T05:58:29;99222.63;;;14.55;88.04
42289;BME280;30230;47.520;19.016;2022-09-03T06:00:30;99224.16;;;14.63;87.74
42289;BME280;30230;47.520;19.016;2022-09-03T06:02:30;99224.91;;;14.70;86.67
42289;BME280;30230;47.520;19.016;2022-09-03T06:04:31;99225.88;;;14.75;85.83
42289;BME280;30230;47.520;19.016;2022-09-03T06:06:35;99222.47;;;14.80;84.95
42289;BME280;30230;47.520;19.016;2022-09-03T06:08:36;99218.81;;;14.86;83.80
42289;BME280;30230;47.520;19.016;2022-09-03T06:10:40;99229.00;;;14.91;82.23
42289;BME280;30230;47.520;19.016;2022-09-03T06:12:42;99223.31;;;14.92;82.65
42289;BME280;30230;47.520;19.016;2022-09-03T06:14:45;99226.53;;;15.01;82.54
42289;BME280;30230;47.520;19.016;2022-09-03T06:16:46;99224.53;;;15.08;81.66
42289;BME280;30230;47.520;19.016;2022-09-03T06:18:48;99218.63;;;15.11;81.25
42289;BME280;30230;47.520;19.016;2022-09-03T06:20:59;99218.88;;;15.21;80.90
42289;BME280;30230;47.520;19.016;2022-09-03T06:22:59;99221.59;;;15.33;80.62
42289;BME280;30230;47.520;19.016;2022-09-03T06:25:00;99223.16;;;15.41;79.92
42289;BME280;30230;47.520;19.016;2022-09-03T06:27:00;99226.34;;;15.49;79.60
42289;BME280;30230;47.520;19.016;2022-09-03T06:29:01;99216.88;;;15.52;77.82
42289;BME280;30230;47.520;19.016;2022-09-03T06:31:03;99224.47;;;15.61;78.01
42289;BME280;30230;47.520;19.016;2022-09-03T06:33:04;99219.84;;;15.62;78.17
42289;BME280;30230;47.520;19.016;2022-09-03T06:35:04;99218.56;;;15.65;76.87
42289;BME280;30230;47.520;19.016;2022-09-03T06:37:05;99215.13;;;15.69;75.94
42289;BME280;30230;47.520;19.016;2022-09-03T06:39:05;99208.25;;;15.78;74.18
42289;BME280;30230;47.520;19.016;2022-09-03T06:41:14;99206.94;;;15.93;74.41
42289;BME280;30230;47.520;19.016;2022-09-03T06:43:24;99209.88;;;16.03;74.15
42289;BME280;30230;47.520;19.016;2022-09-03T06:45:25;99208.81;;;16.04;74.17
42289;BME280;30230;47.520;19.016;2022-09-03T06:47:27;99211.03;;;16.19;73.67
42289;BME280;30230;47.520;19.016;2022-09-03T06:49:27;99213.75;;;16.19;73.57
42289;BME280;30230;47.520;19.016;2022-09-03T06:51:29;99212.28;;;16.28;72.88
42289;BME280;30230;47.520;19.016;2022-09-03T06:53:32;99208.81;;;16.32;71.64
42289;BME280;30230;47.520;19.016;2022-09-03T06:55:32;99209.28;;;16.41;71.79
42289;BME280;30230;47.520;19.016;2022-09-03T06:57:33;99212.19;;;16.51;71.59
42289;BME280;30230;47.520;19.016;2022-09-03T06:59:33;99205.41;;;16.54;70.43
42289;BME280;30230;47.520;19.016;2022-09-03T07:01:34;99213.78;;;16.64;69.76
42289;BME280;30230;47.520;19.016;2022-09-03T07:03:39;99215.56;;;16.70;69.54
42289;BME280;30230;47.520;19.016;2022-09-03T07:05:40;99214.34;;;16.78;68.30
42289;BME280;30230;47.520;19.016;2022-09-03T07:07:42;99200.41;;;16.91;70.84
42289;BME280;30230;47.520;19.016;2022-09-03T07:09:45;99212.00;;;17.15;67.96
42289;BME280;30230;47.520;19.016;2022-09-03T07:11:45;99201.78;;;17.61;75.01
42289;BME280;30230;47.520;19.016;2022-09-03T07:13:48;99207.84;;;17.80;66.75
42289;BME280;30230;47.520;19.016;2022-09-03T07:15:57;99208.41;;;18.04;69.82
42289;BME280;30230;47.520;19.016;2022-09-03T07:17:58;99203.06;;;18.14;67.33
42289;BME280;30230;47.520;19.016;2022-09-03T07:19:58;99212.03;;;18.31;67.64
42289;BME280;30230;47.520;19.016;2022-09-03T07:21:59;99212.22;;;18.46;66.91
42289;BME280;30230;47.520;19.016;2022-09-03T07:23:59;99214.03;;;18.63;62.11
42289;BME280;30230;47.520;19.016;2022-09-03T07:26:04;99210.91;;;18.76;62.39
42289;BME280;30230;47.520;19.016;2022-09-03T07:28:05;99213.34;;;18.99;62.26
42289;BME280;30230;47.520;19.016;2022-09-03T07:30:06;99201.81;;;19.30;61.08
42289;BME280;30230;47.520;19.016;2022-09-03T07:32:09;99205.63;;;19.61;62.47
42289;BME280;30230;47.520;19.016;2022-09-03T07:34:11;99197.25;;;19.83;60.38
42289;BME280;30230;47.520;19.016;2022-09-03T07:36:16;99202.28;;;20.01;59.17
42289;BME280;30230;47.520;19.016;2022-09-03T07:38:17;99201.50;;;20.06;56.16
42289;BME280;30230;47.520;19.016;2022-09-03T07:40:22;99206.16;;;20.10;55.03
42289;BME280;30230;47.520;19.016;2022-09-03T07:42:22;99202.06;;;20.13;55.74
42289;BME280;30230;47.520;19.016;2022-09-03T07:44:23;99199.31;;;20.08;55.36
42289;BME280;30230;47.520;19.016;2022-09-03T07:46:25;99209.16;;;20.03;54.59
42289;BME280;30230;47.520;19.016;2022-09-03T07:48:26;99211.63;;;20.10;54.62
42289;BME280;30230;47.520;19.016;2022-09-03T07:50:27;99219.09;;;20.20;53.08
42289;BME280;30230;47.520;19.016;2022-09-03T07:52:29;99210.88;;;20.25;53.16
42289;BME280;30230;47.520;19.016;2022-09-03T07:54:30;99216.38;;;20.25;52.32
42289;BME280;30230;47.520;19.016;2022-09-03T07:56:31;99214.22;;;20.32;53.36
42289;BME280;30230;47.520;19.016;2022-09-03T07:58:32;99218.66;;;20.43;51.98
42289;BME280;30230;47.520;19.016;2022-09-03T08:00:33;99214.31;;;20.47;53.00
42289;BME280;30230;47.520;19.016;2022-09-03T08:02:33;99218.44;;;20.55;53.55
42289;BME280;30230;47.520;19.016;2022-09-03T08:04:33;99219.78;;;20.47;52.31
42289;BME280;30230;47.520;19.016;2022-09-03T08:06:36;99219.25;;;20.50;52.98
42289;BME280;30230;47.520;19.016;2022-09-03T08:08:37;99223.09;;;20.54;52.18
42289;BME280;30230;47.520;19.016;2022-09-03T08:10:37;99217.09;;;20.68;51.63
42289;BME280;30230;47.520;19.016;2022-09-03T08:12:38;99216.25;;;20.72;51.72
42289;BME280;30230;47.520;19.016;2022-09-03T08:14:39;99219.31;;;20.86;52.67
42289;BME280;30230;47.520;19.016;2022-09-03T08:16:42;99211.09;;;20.96;52.01
42289;BME280;30230;47.520;19.016;2022-09-03T08:18:43;99227.88;;;21.05;52.88
42289;BME280;30230;47.520;19.016;2022-09-03T08:20:44;99216.06;;;21.10;50.90
42289;BME280;30230;47.520;19.016;2022-09-03T08:22:46;99218.81;;;21.10;51.17
42289;BME280;30230;47.520;19.016;2022-09-03T08:24:46;99220.47;;;21.26;51.51
42289;BME280;30230;47.520;19.016;2022-09-03T08:26:47;99220.50;;;21.31;50.81
42289;BME280;30230;47.520;19.016;2022-09-03T08:28:48;99219.09;;;21.33;50.75
42289;BME280;30230;47.520;19.016;2022-09-03T08:30:48;99221.03;;;21.43;49.58
42289;BME280;30230;47.520;19.016;2022-09-03T08:32:49;99203.16;;;21.61;49.23
42289;BME280;30230;47.520;19.016;2022-09-03T08:34:49;99200.66;;;21.65;49.90
42289;BME280;30230;47.520;19.016;2022-09-03T08:36:51;99203.97;;;21.62;49.96
42289;BME280;30230;47.520;19.016;2022-09-03T08:38:53;99211.09;;;21.73;48.83
42289;BME280;30230;47.520;19.016;2022-09-03T08:41:05;99211.09;;;21.73;47.72
42289;BME280;30230;47.520;19.016;2022-09-03T08:45:09;99208.84;;;21.90;46.64
42289;BME280;30230;47.520;19.016;2022-09-03T08:51:28;99208.31;;;21.93;46.50
42289;BME280;30230;47.520;19.016;2022-09-03T08:53:46;99207.44;;;22.08;47.82
42289;BME280;30230;47.520;19.016;2022-09-03T09:00:18;99205.34;;;22.49;47.65
42289;BME280;30230;47.520;19.016;2022-09-03T09:04:54;99209.13;;;22.58;45.48
42289;BME280;30230;47.520;19.016;2022-09-03T09:07:12;99210.97;;;22.73;45.84
42289;BME280;30230;47.520;19.016;2022-09-03T09:14:32;99202.22;;;22.66;44.48
42289;BME280;30230;47.520;19.016;2022-09-03T09:22:54;99197.88;;;21.80;49.12
42289;BME280;30230;47.520;19.016;2022-09-03T09:24:58;99195.28;;;22.24;47.27
42289;BME280;30230;47.520;19.016;2022-09-03T09:27:04;99192.69;;;22.48;46.17
42289;BME280;30230;47.520;19.016;2022-09-03T09:29:07;99194.56;;;22.58;45.26
42289;BME280;30230;47.520;19.016;2022-09-03T09:31:13;99189.75;;;22.79;45.30
42289;BME280;30230;47.520;19.016;2022-09-03T09:33:16;99192.72;;;22.93;45.06
42289;BME280;30230;47.520;19.016;2022-09-03T09:35:17;99191.81;;;23.02;44.51
42289;BME280;30230;47.520;19.016;2022-09-03T09:37:18;99189.50;;;23.14;44.16
42289;BME280;30230;47.520;19.016;2022-09-03T09:39:19;99192.72;;;23.27;43.25
42289;BME280;30230;47.520;19.016;2022-09-03T09:41:20;99188.84;;;23.28;42.90
42289;BME280;30230;47.520;19.016;2022-09-03T09:43:23;99187.41;;;23.35;42.15
42289;BME280;30230;47.520;19.016;2022-09-03T09:45:23;99190.84;;;23.51;41.30
42289;BME280;30230;47.520;19.016;2022-09-03T09:47:28;99194.50;;;23.47;41.86
42289;BME280;30230;47.520;19.016;2022-09-03T09:51:35;99186.09;;;23.28;41.85
42289;BME280;30230;47.520;19.016;2022-09-03T09:53:36;99198.06;;;23.47;42.05
42289;BME280;30230;47.520;19.016;2022-09-03T09:55:47;99185.09;;;23.48;41.53
42289;BME280;30230;47.520;19.016;2022-09-03T09:57:52;99187.72;;;23.63;41.52
42289;BME280;30230;47.520;19.016;2022-09-03T10:00:09;99184.81;;;23.78;40.73
42289;BME280;30230;47.520;19.016;2022-09-03T10:02:14;99182.81;;;23.84;40.38
42289;BME280;30230;47.520;19.016;2022-09-03T10:04:23;99179.75;;;23.85;41.01
42289;BME280;30230;47.520;19.016;2022-09-03T10:06:29;99185.53;;;23.89;41.33
42289;BME280;30230;47.520;19.016;2022-09-03T10:08:49;99190.50;;;23.87;39.56
42289;BME280;30230;47.520;19.016;2022-09-03T10:10:50;99191.38;;;23.53;39.44
42289;BME280;30230;47.520;19.016;2022-09-03T10:17:38;99195.78;;;24.07;38.80
42289;BME280;30230;47.520;19.016;2022-09-03T10:20:07;99189.78;;;24.24;37.88
42289;BME280;30230;47.520;19.016;2022-09-03T10:22:29;99194.72;;;24.51;38.89
42289;BME280;30230;47.520;19.016;2022-09-03T10:24:43;99194.94;;;24.74;39.04
42289;BME280;30230;47.520;19.016;2022-09-03T10:26:46;99177.81;;;24.90;39.64
42289;BME280;30230;47.520;19.016;2022-09-03T10:28:51;99186.78;;;25.01;40.06
42289;BME280;30230;47.520;19.016;2022-09-03T10:33:16;99181.00;;;25.35;37.86
42289;BME280;30230;47.520;19.016;2022-09-03T10:37:36;99188.63;;;25.57;39.07
42289;BME280;30230;47.520;19.016;2022-09-03T10:41:55;99171.84;;;25.67;38.80
42289;BME280;30230;47.520;19.016;2022-09-03T10:44:24;99169.22;;;25.76;37.59
42289;BME280;30230;47.520;19.016;2022-09-03T10:51:26;99171.66;;;25.31;37.23
42289;BME280;30230;47.520;19.016;2022-09-03T10:57:57;99170.59;;;24.38;38.86
42289;BME280;30230;47.520;19.016;2022-09-03T11:00:08;99165.91;;;24.33;39.48
42289;BME280;30230;47.520;19.016;2022-09-03T11:06:57;99168.66;;;24.57;40.60
42289;BME280;30230;47.520;19.016;2022-09-03T11:09:08;99162.53;;;24.17;39.61
42289;BME280;30230;47.520;19.016;2022-09-03T11:11:16;99157.19;;;23.83;40.67
42289;BME280;30230;47.520;19.016;2022-09-03T11:15:32;99161.59;;;23.26;42.54
42289;BME280;30230;47.520;19.016;2022-09-03T11:17:40;99154.31;;;23.06;42.62
42289;BME280;30230;47.520;19.016;2022-09-03T11:19:47;99152.81;;;22.90;42.57
42289;BME280;30230;47.520;19.016;2022-09-03T11:21:50;99152.91;;;22.75;42.92
42289;BME280;30230;47.520;19.016;2022-09-03T11:24:07;99168.31;;;22.76;43.69
42289;BME280;30230;47.520;19.016;2022-09-03T11:26:21;99173.00;;;22.75;43.71
42289;BME280;30230;47.520;19.016;2022-09-03T11:28:33;99167.50;;;22.70;42.64
42289;BME280;30230;47.520;19.016;2022-09-03T11:33:08;99169.47;;;22.65;42.81
42289;BME280;30230;47.520;19.016;2022-09-03T11:37:46;99164.88;;;22.50;43.33
42289;BME280;30230;47.520;19.016;2022-09-03T11:40:06;99158.00;;;22.47;43.84
42289;BME280;30230;47.520;19.016;2022-09-03T11:42:25;99168.53;;;22.40;45.76
42289;BME280;30230;47.520;19.016;2022-09-03T11:44:40;99165.41;;;22.52;44.76
42289;BME280;30230;47.520;19.016;2022-09-03T11:46:55;99156.66;;;22.45;43.93
42289;BME280;30230;47.520;19.016;2022-09-03T11:49:09;99169.56;;;22.49;42.94
42289;BME280;30230;47.520;19.016;2022-09-03T11:51:33;99163.53;;;22.42;42.27
42289;BME280;30230;47.520;19.016;2022-09-03T11:53:35;99157.16;;;22.52;41.63
42289;BME280;30230;47.520;19.016;2022-09-03T11:55:58;99164.63;;;22.46;41.82
42289;BME280;30230;47.520;19.016;2022-09-03T11:58:18;99166.75;;;22.59;42.86
42289;BME280;30230;47.520;19.016;2022-09-03T12:00:23;99153.94;;;22.79;40.63
42289;BME280;30230;47.520;19.016;2022-09-03T12:02:30;99166.09;;;23.75;39.13
42289;BME280;30230;47.520;19.016;2022-09-03T12:04:39;99167.50;;;24.39;37.38
42289;BME280;30230;47.520;19.016;2022-09-03T12:12:10;99167.44;;;25.20;37.93
42289;BME280;30230;47.520;19.016;2022-09-03T12:14:40;99167.84;;;25.60;37.29
42289;BME280;30230;47.520;19.016;2022-09-03T12:19:02;99157.94;;;26.14;36.35
42289;BME280;30230;47.520;19.016;2022-09-03T12:21:05;99159.78;;;26.18;36.50
42289;BME280;30230;47.520;19.016;2022-09-03T12:23:13;99157.81;;;26.33;37.38
42289;BME280;30230;47.520;19.016;2022-09-03T12:25:24;99158.53;;;26.52;33.73
42289;BME280;30230;47.520;19.016;2022-09-03T12:27:26;99155.28;;;26.09;33.11
42289;BME280;30230;47.520;19.016;2022-09-03T12:29:27;99146.75;;;26.46;33.84
42289;BME280;30230;47.520;19.016;2022-09-03T12:31:30;99146.56;;;26.65;34.07
42289;BME280;30230;47.520;19.016;2022-09-03T12:33:32;99148.78;;;26.77;34.29
42289;BME280;30230;47.520;19.016;2022-09-03T12:35:32;99148.09;;;26.71;33.20
42289;BME280;30230;47.520;19.016;2022-09-03T12:37:35;99146.66;;;26.74;32.82
42289;BME280;30230;47.520;19.016;2022-09-03T12:39:37;99149.34;;;26.65;33.04
42289;BME280;30230;47.520;19.016;2022-09-03T12:41:37;99153.38;;;26.59;33.91
42289;BME280;30230;47.520;19.016;2022-09-03T12:43:38;99148.66;;;26.60;32.63
42289;BME280;30230;47.520;19.016;2022-09-03T12:45:48;99147.03;;;26.45;33.49
42289;BME280;30230;47.520;19.016;2022-09-03T12:47:53;99137.56;;;26.60;33.22
42289;BME280;30230;47.520;19.016;2022-09-03T12:49:56;99144.91;;;26.42;34.54
42289;BME280;30230;47.520;19.016;2022-09-03T12:52:04;99140.19;;;26.29;34.87
42289;BME280;30230;47.520;19.016;2022-09-03T12:54:09;99147.69;;;25.87;34.03
42289;BME280;30230;47.520;19.016;2022-09-03T12:56:15;99142.16;;;25.87;33.68
42289;BME280;30230;47.520;19.016;2022-09-03T13:00:17;99139.03;;;26.30;34.07
42289;BME280;30230;47.520;19.016;2022-09-03T13:02:24;99139.44;;;26.37;33.80